Still River, Massachusetts
Current Conditions -  °F | °C
As of 6:52 PM on Sunday 25 Jan 2015 (Local Time) from KFIT Reporting Station
Clear Clear  
Wind Chill: 16°   Ceiling: Unl
Heat Index: 25°   Visibility: 10mi
Dew Point:   Wind: 8mph
Humidity: 45%   Direction: 280°W
Pressure: 29.9"   Gusts: NA
Location:  42.49°N, 71.62°W
Report Text: KFIT 252352Z AUTO 28007KT 10SM CLR M04/M14 A2990 RMK AO2 PRESRR SLP128 T10391144 10017 21039 53052
Loading
Personal Weather Stations






























Interactive Weather Map New forecast layout! Learn more

10-Day Weather Forecast

Advertisements
Track Severe Weather on mobile